Independence, Ohio
Current Conditions -  °F | °C
As of 7:22 PM on Monday 20 Oct 2014 (Local Time) from KBKL Reporting Station
Light Rain Light Rain  
Wind Chill: 54°   Ceiling: 1200
Heat Index: 54°   Visibility: 9mi
Dew Point: 51°   Wind: 13mph
Humidity: 90%   Direction: 210°SSW
Pressure: 29.83"   Gusts: NA
Location:  41.38°N, 81.64°W
Report Text: KBKL 202322Z 21011KT 9SM -RA BKN012 BKN019 OVC027 12/11 A2983 RMK AO2 P0003 T01220106
Loading
Personal Weather Stations






























Interactive Weather Map
Tropical Storm Tracking
New forecast layout! Learn more

10-Day Weather Forecast

Advertisements
Track Severe Weather on mobile